Strona główna
METAR-TAF:

METAR-TAF

Lotnisko :

Port lotniczy Sakon Nakhon

Sakon Nakhon, Tajlandia

Szerokość geograficzna: 17-11-42N, Długość geograficzna: 104-07-08E, wysokość: 161 m

Aktualna obserwacja pogody

Raport powstał 37 minut temu, godzina 03:00 UTC
Wiatr 3 kt od wschodnio-północny wschód, zmienny między północny zachód i wschodnio-południowy wschód
Temperatura 20°C
Wilgotność 49%
Ciśnienie 1019 hPa
Widzialność: 9000 m

METAR: VTUI 100300Z 06003KT 320V120 9000 NSC 20/09 Q1019 NOSIG

czas: 10:37 (03:37 UTC)

Prognoza

Raport powstał 4 godziny i 37 minut temu, godzina 23:00 UTC
Prognoza ważna od 10 godzina 00 UTC do 10 godzina 24 UTC
Wiatr 2 kt z kierunków zmiennych
Widzialność: 5000 m
zamglenie
Stopniowe zmiany
od 10 godzina 02 UTC do 10 godzina 04 UTC
Wiatr 10 kt od wschodnio-północny wschód
Widzialność: 9000 m

TAF: VTUI 092300Z 1000/1024 VRB02KT 5000 BR NSC BECMG 1002/1004 06010KT 9000 NSW

Obserwacja i prognoza pogody dla ponad 4000 lotnisk (raport METAR i TAF).

Dostępne stacje oznaczono żółtymi i czerwonymi punktami na mapie.

Najedź kursorem aby zobaczyć nazwę stacji.

Kliknij aby zobaczyć obserwacje i prognozy pogody.

Aby zmienić mapę: kliknij na zielony przycisk z czarnym krzyżykiem, aby powiększyć; na zielony przycisk z myślnikiem, aby pomniejszyć; na zielone strzałki, aby przejść do map sąsiednich.


METAR-TAF: